アトランタ の空港の天気 - METARとTAF

ハーツフィールド・ジャクソン・アトランタ国際空港 ( KATL / ATL ) - アメリカ ジョージア州アトランタ
飛行場実況気象(Metar)
観測時間09/24 21:52 EDT (09/25 01:52 UTC)
風向・風速東 6m/s
視程10km以上
天気現象
少しの雲 雲底高度 460m
全天の4割程度の雲 雲底高度 1070m
全天の8割程度の雲 雲底高度 1520m
全天の8割程度の雲 雲底高度 7620m
気温25℃
湿度74%
気圧1019.7hPa
METARKATL 250152Z 10011KT 10SM FEW015 SCT035 BKN050 BKN250 25/20 A3014 RMK AO2 SLP197 T02500200
過去の天気等 Google飛行場航空写真 Wunderground天気予報

過去48時間のMETAR

飛行場予報(TAF)
発表時間: 9/24 21:30 EDT (9/25 01:30 UTC)
予報対象時間: 24日22時 EDT ~ 26日2時 EDT
風向・風速東南東 6m/s
視程10km以上
天気現象周辺でしゅう雨
全天の4割程度の雲 雲底高度 1070m
全天の8割程度の雲 雲底高度 2740m
24日22時 EDT ~ 25日1時 EDT に一時的に
全天の8割程度の雲 雲底高度 1070m
25日1時 EDT から
風向・風速東南東 5m/s
視程10km以上
全天の4割程度の雲 雲底高度 210m
全天の8割程度の雲 雲底高度 610m
25日4時 EDT から
風向・風速東南東 4m/s
視程10km以上
全天を覆う雲 雲底高度 150m
25日10時 EDT から
風向・風速東南東 4m/s
視程10km以上
天気現象周辺でしゅう雨
全天の8割程度の雲 雲底高度 300m
25日13時 EDT から
風向・風速南東 4m/s
視程10km以上
天気現象周辺でしゅう雨
全天の8割程度の雲 雲底高度 1070m
25日13時 EDT から 確率 30% で
視程6440m
天気現象しゅう雨
全天の8割程度の雲 雲底高度 910m
25日19時 EDT から
風向・風速南東 3m/s
視程10km以上
天気現象周辺でしゅう雨
全天の4割程度の雲 雲底高度 1370m
全天の8割程度の雲 雲底高度 2440m
KATL 250130Z 2502/2606 11012KT P6SM VCSH SCT035 BKN090
TEMPO 2502/2505 BKN035
FM250500 11010KT P6SM SCT007 BKN020
FM250800 11008KT P6SM OVC005
FM251400 12007KT P6SM VCSH BKN010
FM251700 13007KT P6SM VCSH BKN035
PROB30 2517/2523 4SM SHRA BKN030
FM252300 13006KT P6SM VCSH SCT045 BKN080